< < Back
Terminal Aerodrome Forecast


Current Version              Previous Versions:   1  2  3  4  5  6  7  8  9  

Terminal Aerodrome Forecast

385
FTUS44 KMOB 311907 AAA
TAFPNS
TAF AMD
KPNS 311907Z 3119/0118 14003KT P6SM VCTS FEW030CB SCT080 SCT110
      TEMPO 3119/3122 VRB15G35KT 2SM TSRA OVC030CB
     FM010300 04005KT P6SM SCT040 SCT250=



Latest METAR

245
SAUS70 KWBC 312256
MTRPNS
METAR KPNS 312253Z 32004KT 5SM -TSRA BR SCT027 SCT040 BKN095 26/24 A2984
RMK AO2 LTG DSNT ALQDS RAB2156 PRESFR SLP107 P0009
T02560244


USA.gov is the U.S. government's official web portal to all federal, state and local government web resources and services.